Terminal Aerodrome Forecast
Issued by NWS Portland, OR

Home | Current Version | Previous Version | Text Only | Print | Product List | Glossary On
Versions: 1 2 3 4 5 6 7 8 9 10 11 12 13 14 15 16 17 18 19 20 21 22 23 24 25
000
FTUS46 KPQR 050203 AAA
TAFEUG
TAF AMD
KEUG 050203Z 0502/0524 03010KT P6SM FEW060 BKN250
     FM050700 VRB03KT P6SM BKN250
     FM051500 24005KT P6SM FEW015 BKN200
     FM051900 29006KT P6SM SCT040 BKN080 BKN140=

USA.gov is the U.S. government's official web portal to all federal, state and local government web resources and services.